Henry, Nebraska
Current Conditions -  °F | °C
As of 7:53 PM on Saturday 24 Jan 2015 (Local Time) from KTOR Reporting Station
Overcast Overcast  
Wind Chill: 28°   Ceiling: 9500
Heat Index: 39°   Visibility: 10mi
Dew Point: 30°   Wind: 24mph
Humidity: 70%   Direction: 300°WNW
Pressure: 30.07"   Gusts: 33mph
Location:  42°N, 104.05°W
Report Text: KTOR 250253Z AUTO 30021G29KT 10SM SCT070 OVC095 04/M01 A3007 RMK AO2 PK WND 28032/0155 SLP188 60000 T00391011 51024
Loading
Personal Weather Stations






























Interactive Weather Map New forecast layout! Learn more

10-Day Weather Forecast

Advertisements
Track Severe Weather on mobile